Time;durP1;ratioP1;P1;durP2;ratioP2;P2;SDS_P1;SDS_P2;PMS_P1;PMS_P2;Temp;Humidity;BMP_temperature;BMP_pressure;BME280_temperature;BME280_humidity;BME280_pressure;Samples;Min_cycle;Max_cycle;Signal;HPM_P1;HPM_P2
2021/04/05 00:01:20;;;;;;;;;25.00;19.67;;;;;;;;5000392;28;8838;-78
2021/04/05 00:03:47;;;;;;;;;27.00;21.00;;;;;;;;5015092;28;8957;-77
2021/04/05 00:06:14;;;;;;;;;20.67;20.00;;;;;;;;5015486;28;8849;-76
2021/04/05 00:08:42;;;;;;;;;23.00;23.00;;;;;;;;5018266;28;9757;-78
2021/04/05 00:11:09;;;;;;;;;18.67;18.00;;;;;;;;5017386;28;9680;-76
2021/04/05 00:13:38;;;;;;;;;24.67;20.67;;;;;;;;5019246;28;8987;-76
2021/04/05 00:16:06;;;;;;;;;22.00;18.00;;;;;;;;5021360;28;8873;-77
2021/04/05 00:18:33;;;;;;;;;27.33;23.33;;;;;;;;5024089;28;8868;-77
2021/04/05 00:21:05;;;;;;;;;23.33;23.33;;;;;;;;5017505;28;8869;-77
2021/04/05 00:23:32;;;;;;;;;24.67;21.00;;;;;;;;5016529;28;8888;-78
2021/04/05 00:26:00;;;;;;;;;28.33;25.33;;;;;;;;5020519;28;8880;-79
2021/04/05 00:28:27;;;;;;;;;26.67;22.00;;;;;;;;5018152;28;8877;-76
2021/04/05 00:30:54;;;;;;;;;29.67;21.33;;;;;;;;5018958;28;8991;-76
2021/04/05 00:33:22;;;;;;;;;22.33;17.33;;;;;;;;5017756;28;8875;-78
2021/04/05 00:35:49;;;;;;;;;33.33;25.00;;;;;;;;5017949;28;8912;-76
2021/04/05 00:38:17;;;;;;;;;24.67;20.00;;;;;;;;5024931;28;8848;-76
2021/04/05 00:40:53;;;;;;;;;22.00;19.00;;;;;;;;5000804;28;8873;-79
2021/04/05 00:43:22;;;;;;;;;28.00;22.00;;;;;;;;5026061;28;8966;-79
2021/04/05 00:45:49;;;;;;;;;31.33;23.33;;;;;;;;5000912;28;8877;-78
2021/04/05 00:48:16;;;;;;;;;13.67;13.67;;;;;;;;5020497;28;8902;-78
2021/04/05 00:50:47;;;;;;;;;26.67;17.33;;;;;;;;5018889;28;8876;-78
2021/04/05 00:53:16;;;;;;;;;27.33;25.00;;;;;;;;5019109;28;8864;-78
2021/04/05 00:55:45;;;;;;;;;26.00;20.33;;;;;;;;5020934;28;8861;-78
2021/04/05 00:58:12;;;;;;;;;18.33;18.33;;;;;;;;5018232;28;8958;-79
2021/04/05 01:00:43;;;;;;;;;24.33;17.00;;;;;;;;5017305;28;8817;-78
2021/04/05 01:03:12;;;;;;;;;25.00;18.67;;;;;;;;5024437;28;9003;-76
2021/04/05 01:05:39;;;;;;;;;39.00;20.33;;;;;;;;5022154;28;8980;-77
2021/04/05 01:08:08;;;;;;;;;30.33;22.67;;;;;;;;5022414;28;8876;-77
2021/04/05 01:10:35;;;;;;;;;21.00;13.67;;;;;;;;5004558;28;8856;-76
2021/04/05 01:13:02;;;;;;;;;24.33;19.33;;;;;;;;5022727;28;8852;-76
2021/04/05 01:15:29;;;;;;;;;30.33;23.00;;;;;;;;5022438;28;8977;-76
2021/04/05 01:17:57;;;;;;;;;20.67;16.00;;;;;;;;5023928;28;8861;-76
2021/04/05 01:20:26;;;;;;;;;18.67;16.67;;;;;;;;5017091;28;8896;-76
2021/04/05 01:22:54;;;;;;;;;15.67;11.67;;;;;;;;5023415;28;8885;-79
2021/04/05 01:25:22;;;;;;;;;23.00;18.00;;;;;;;;5029608;28;8897;-79
2021/04/05 01:27:51;;;;;;;;;25.00;20.00;;;;;;;;5023126;28;8923;-78
2021/04/05 01:30:33;;;;;;;;;20.33;18.67;;;;;;;;5023272;28;8869;-79
2021/04/05 01:33:02;;;;;;;;;22.67;19.33;;;;;;;;5020371;28;8900;-79
2021/04/05 01:35:30;;;;;;;;;21.67;16.67;;;;;;;;5022713;28;11560;-79
2021/04/05 01:37:58;;;;;;;;;20.33;14.67;;;;;;;;5021726;28;8868;-78
2021/04/05 01:40:24;;;;;;;;;19.67;15.33;;;;;;;;5021874;28;8844;-79
2021/04/05 01:42:52;;;;;;;;;21.33;15.67;;;;;;;;5021220;28;8888;-79
2021/04/05 01:45:20;;;;;;;;;17.33;11.67;;;;;;;;5020740;28;11512;-77
2021/04/05 01:47:47;;;;;;;;;19.33;16.33;;;;;;;;5030025;28;11619;-78
2021/04/05 01:50:15;;;;;;;;;21.33;21.00;;;;;;;;5022516;28;9727;-79
2021/04/05 01:52:43;;;;;;;;;21.00;19.00;;;;;;;;5018791;28;8885;-79
2021/04/05 01:55:12;;;;;;;;;14.67;11.00;;;;;;;;5002322;28;8868;-79
2021/04/05 01:57:39;;;;;;;;;14.33;11.33;;;;;;;;5022905;28;8945;-78
2021/04/05 02:00:14;;;;;;;;;20.33;17.00;;;;;;;;4996991;28;11553;-79
2021/04/05 02:02:41;;;;;;;;;17.00;17.00;;;;;;;;5018955;28;8897;-78
2021/04/05 02:05:09;;;;;;;;;18.33;17.33;;;;;;;;5021947;28;11639;-77
2021/04/05 02:07:38;;;;;;;;;22.67;16.33;;;;;;;;5022152;28;8852;-78
2021/04/05 02:10:12;;;;;;;;;24.67;19.00;;;;;;;;5026089;28;11719;-78
2021/04/05 02:12:40;;;;;;;;;20.00;11.33;;;;;;;;5019378;28;11569;-77
2021/04/05 02:15:13;;;;;;;;;18.67;13.67;;;;;;;;5021134;28;11550;-77
2021/04/05 02:17:40;;;;;;;;;21.00;17.00;;;;;;;;5001470;28;11556;-78
2021/04/05 02:20:08;;;;;;;;;23.33;19.33;;;;;;;;5021003;28;11572;-77
2021/04/05 02:22:38;;;;;;;;;21.00;16.67;;;;;;;;5021651;28;11710;-77
2021/04/05 02:25:08;;;;;;;;;26.33;21.00;;;;;;;;5018299;28;11608;-78
2021/04/05 02:27:36;;;;;;;;;23.67;18.33;;;;;;;;5003989;28;8968;-78
2021/04/05 02:30:04;;;;;;;;;22.67;16.67;;;;;;;;5007997;28;11699;-79
2021/04/05 02:32:32;;;;;;;;;14.00;14.00;;;;;;;;5005320;28;8872;-80
2021/04/05 02:34:59;;;;;;;;;18.00;15.67;;;;;;;;5003197;28;11663;-78
2021/04/05 02:37:26;;;;;;;;;26.00;21.00;;;;;;;;5003279;28;8876;-78
2021/04/05 02:39:52;;;;;;;;;22.33;18.00;;;;;;;;5021145;28;8995;-79
2021/04/05 02:42:21;;;;;;;;;17.67;15.00;;;;;;;;5020565;28;11572;-79
2021/04/05 02:44:49;;;;;;;;;23.67;21.00;;;;;;;;5020924;28;9227;-80
2021/04/05 02:47:15;;;;;;;;;12.67;12.67;;;;;;;;5020290;28;9717;-80
2021/04/05 02:49:42;;;;;;;;;21.00;18.33;;;;;;;;5025355;28;8896;-80
2021/04/05 02:52:10;;;;;;;;;17.00;14.00;;;;;;;;5008651;28;9030;-79
2021/04/05 02:54:37;;;;;;;;;18.33;15.33;;;;;;;;5005043;28;8899;-80
2021/04/05 02:57:04;;;;;;;;;21.00;21.00;;;;;;;;5019017;28;11581;-80
2021/04/05 02:59:31;;;;;;;;;25.67;20.00;;;;;;;;5020416;28;8848;-80
2021/04/05 03:02:01;;;;;;;;;22.33;20.00;;;;;;;;5002201;28;8848;-79
2021/04/05 03:04:31;;;;;;;;;17.33;17.00;;;;;;;;5002407;28;8865;-79
2021/04/05 03:06:58;;;;;;;;;21.00;19.33;;;;;;;;5002393;28;11578;-80
2021/04/05 03:09:25;;;;;;;;;20.33;15.33;;;;;;;;5019082;28;8954;-77
2021/04/05 03:11:52;;;;;;;;;20.00;17.00;;;;;;;;5021348;28;9001;-77
2021/04/05 03:14:20;;;;;;;;;17.33;13.33;;;;;;;;5026314;28;8889;-78
2021/04/05 03:16:47;;;;;;;;;15.00;15.00;;;;;;;;5019763;28;8880;-78
2021/04/05 03:19:16;;;;;;;;;25.00;16.67;;;;;;;;5021789;28;8857;-79
2021/04/05 03:21:44;;;;;;;;;26.67;22.33;;;;;;;;5002677;28;8880;-78
2021/04/05 03:24:12;;;;;;;;;21.67;15.67;;;;;;;;5018850;28;8861;-77
2021/04/05 03:26:39;;;;;;;;;24.67;18.00;;;;;;;;5017429;28;8888;-77
2021/04/05 03:29:09;;;;;;;;;16.33;15.00;;;;;;;;5003398;28;8898;-78
2021/04/05 03:31:39;;;;;;;;;20.33;14.00;;;;;;;;5018364;28;8812;-78
2021/04/05 03:34:10;;;;;;;;;17.00;17.00;;;;;;;;5019603;28;8881;-76
2021/04/05 03:36:41;;;;;;;;;21.33;14.33;;;;;;;;5029712;28;8857;-76
2021/04/05 03:39:10;;;;;;;;;16.67;11.33;;;;;;;;5017339;28;8873;-78
2021/04/05 03:41:42;;;;;;;;;26.67;20.67;;;;;;;;5006247;28;9007;-77
2021/04/05 03:44:18;;;;;;;;;26.67;23.00;;;;;;;;5017580;28;8968;-78
2021/04/05 03:46:46;;;;;;;;;25.67;21.67;;;;;;;;5020604;28;8876;-77
2021/04/05 03:49:23;;;;;;;;;27.67;26.67;;;;;;;;5017494;28;8837;-78
2021/04/05 03:51:55;;;;;;;;;28.33;22.67;;;;;;;;5018244;28;8896;-78
2021/04/05 03:54:23;;;;;;;;;28.33;28.33;;;;;;;;5020142;28;9529;-77
2021/04/05 03:56:53;;;;;;;;;27.33;26.33;;;;;;;;5024352;28;8884;-77
2021/04/05 03:59:25;;;;;;;;;33.67;26.33;;;;;;;;5023176;28;8879;-77
2021/04/05 04:01:55;;;;;;;;;34.33;32.33;;;;;;;;5020008;28;8821;-78
2021/04/05 04:04:26;;;;;;;;;32.00;26.33;;;;;;;;5020398;28;8885;-78
2021/04/05 04:07:03;;;;;;;;;33.33;28.33;;;;;;;;5020488;28;8871;-77
2021/04/05 04:09:34;;;;;;;;;28.00;27.00;;;;;;;;5018418;28;8860;-78
2021/04/05 04:12:02;;;;;;;;;37.33;36.67;;;;;;;;5017671;28;8868;-78
2021/04/05 04:14:32;;;;;;;;;30.00;29.33;;;;;;;;5019524;28;8970;-78
2021/04/05 04:17:00;;;;;;;;;41.00;37.33;;;;;;;;5002623;28;9003;-77
2021/04/05 04:19:27;;;;;;;;;33.33;29.33;;;;;;;;5027359;28;8844;-76
2021/04/05 04:21:56;;;;;;;;;44.33;34.67;;;;;;;;5020136;28;8869;-76
2021/04/05 04:24:23;;;;;;;;;34.00;29.33;;;;;;;;5019934;28;8991;-76
2021/04/05 04:26:50;;;;;;;;;29.33;26.33;;;;;;;;5019080;28;11649;-76
2021/04/05 04:29:20;;;;;;;;;38.33;32.33;;;;;;;;5002869;28;8860;-76
2021/04/05 04:31:48;;;;;;;;;35.33;33.67;;;;;;;;5000385;28;8983;-76
2021/04/05 04:34:16;;;;;;;;;39.67;37.00;;;;;;;;5020571;28;8916;-78
2021/04/05 04:36:44;;;;;;;;;32.67;31.00;;;;;;;;5021235;28;8883;-75
2021/04/05 04:39:12;;;;;;;;;40.33;34.00;;;;;;;;5021833;28;11560;-76
2021/04/05 04:41:42;;;;;;;;;45.33;35.33;;;;;;;;5032222;28;8911;-76
2021/04/05 04:44:10;;;;;;;;;33.33;25.00;;;;;;;;5019817;28;11590;-77
2021/04/05 04:46:38;;;;;;;;;32.33;32.33;;;;;;;;5023954;28;9007;-76
2021/04/05 04:49:06;;;;;;;;;38.00;28.33;;;;;;;;5021928;28;11646;-76
2021/04/05 04:51:33;;;;;;;;;47.67;39.00;;;;;;;;5023557;28;11567;-76
2021/04/05 04:54:02;;;;;;;;;37.33;33.00;;;;;;;;5023505;28;11642;-76
2021/04/05 04:56:30;;;;;;;;;45.00;39.67;;;;;;;;5022260;28;11602;-76
2021/04/05 04:59:02;;;;;;;;;39.67;37.33;;;;;;;;5023075;28;11563;-77
2021/04/05 05:01:30;;;;;;;;;29.67;29.67;;;;;;;;5021399;28;12275;-77
2021/04/05 05:04:01;;;;;;;;;40.00;33.67;;;;;;;;5030463;28;11659;-78
2021/04/05 05:06:28;;;;;;;;;55.33;44.67;;;;;;;;5022489;28;11607;-77
2021/04/05 05:08:57;;;;;;;;;43.00;36.00;;;;;;;;5023226;28;8868;-77
2021/04/05 05:11:25;;;;;;;;;27.33;26.00;;;;;;;;5021983;28;11601;-76
2021/04/05 05:13:53;;;;;;;;;34.67;30.67;;;;;;;;5022510;28;11579;-76
2021/04/05 05:16:21;;;;;;;;;37.67;33.67;;;;;;;;5023603;28;11673;-76
2021/04/05 05:18:48;;;;;;;;;36.50;32.25;;;;;;;;5021667;28;11586;-76
2021/04/05 05:21:18;;;;;;;;;41.00;36.67;;;;;;;;5022918;28;11588;-78
2021/04/05 05:23:46;;;;;;;;;54.33;44.33;;;;;;;;5016349;28;11694;-75
2021/04/05 05:26:14;;;;;;;;;42.50;30.75;;;;;;;;5031358;28;8896;-75
2021/04/05 05:28:41;;;;;;;;;52.67;41.00;;;;;;;;5020350;28;11674;-75
2021/04/05 05:31:09;;;;;;;;;43.00;40.67;;;;;;;;5021056;28;11627;-76
2021/04/05 05:33:36;;;;;;;;;35.00;34.25;;;;;;;;5022044;28;12636;-75
2021/04/05 05:36:03;;;;;;;;;41.00;40.50;;;;;;;;5021006;28;11755;-76
2021/04/05 05:38:30;;;;;;;;;54.00;46.67;;;;;;;;5030809;28;11587;-78
2021/04/05 05:41:06;;;;;;;;;47.67;38.00;;;;;;;;5017625;28;11595;-77
2021/04/05 05:43:37;;;;;;;;;36.25;33.25;;;;;;;;5022863;28;11581;-81
2021/04/05 05:46:23;;;;;;;;;39.50;37.50;;;;;;;;5022944;28;11638;-79
2021/04/05 05:49:12;;;;;;;;;45.50;38.00;;;;;;;;5020610;28;11596;-78
2021/04/05 05:51:59;;;;;;;;;53.00;42.00;;;;;;;;5020399;28;11769;-77
2021/04/05 05:54:34;;;;;;;;;42.50;37.75;;;;;;;;5020929;28;11698;-79
2021/04/05 05:57:07;;;;;;;;;50.67;39.67;;;;;;;;5021495;28;11587;-81
2021/04/05 05:59:42;;;;;;;;;48.00;37.25;;;;;;;;5021635;28;11579;-80
2021/04/05 06:02:22;;;;;;;;;46.25;41.00;;;;;;;;5022121;28;11633;-80
2021/04/05 06:05:07;;;;;;;;;55.25;42.75;;;;;;;;5020193;28;11580;-78
2021/04/05 06:07:41;;;;;;;;;56.00;42.25;;;;;;;;5027492;28;11696;-75
2021/04/05 06:10:14;;;;;;;;;43.00;32.75;;;;;;;;5017621;28;11592;-77
2021/04/05 06:12:45;;;;;;;;;47.25;36.50;;;;;;;;5022444;28;11654;-73
2021/04/05 06:15:16;;;;;;;;;55.75;42.25;;;;;;;;5020592;28;11582;-79
2021/04/05 06:17:53;;;;;;;;;47.00;41.00;;;;;;;;5023098;28;11616;-76
2021/04/05 06:20:23;;;;;;;;;52.00;40.00;;;;;;;;5021173;28;11665;-76
2021/04/05 06:23:07;;;;;;;;;46.75;40.25;;;;;;;;5021526;28;11631;-79
2021/04/05 06:25:39;;;;;;;;;40.50;36.75;;;;;;;;5021168;28;11578;-80
2021/04/05 06:28:10;;;;;;;;;27.00;27.00;;;;;;;;5021154;28;11644;-83
2021/04/05 06:30:47;;;;;;;;;56.75;41.50;;;;;;;;5026680;28;11263;-80
2021/04/05 06:33:20;;;;;;;;;51.25;41.25;;;;;;;;5021554;28;11574;-76
2021/04/05 06:36:12;;;;;;;;;43.75;38.25;;;;;;;;5021884;28;11671;-76
2021/04/05 06:38:44;;;;;;;;;47.75;40.00;;;;;;;;5021760;28;11635;-81
2021/04/05 06:41:38;;;;;;;;;44.75;39.25;;;;;;;;5020337;28;11595;-80
2021/04/05 06:44:23;;;;;;;;;55.75;47.00;;;;;;;;4977095;28;11712;-79
2021/04/05 06:47:09;;;;;;;;;58.00;44.50;;;;;;;;5021652;28;11637;-80
2021/04/05 06:49:49;;;;;;;;;40.25;32.00;;;;;;;;5019974;28;12316;-79
2021/04/05 06:52:25;;;;;;;;;40.75;36.50;;;;;;;;5024822;28;11596;-80
2021/04/05 06:55:06;;;;;;;;;41.25;36.25;;;;;;;;5019881;28;11611;-79
2021/04/05 06:57:52;;;;;;;;;60.00;45.25;;;;;;;;5003002;28;11619;-78
2021/04/05 07:00:24;;;;;;;;;44.25;37.75;;;;;;;;5020129;28;11655;-77
2021/04/05 07:03:20;;;;;;;;;40.50;37.25;;;;;;;;5020362;28;11601;-79
2021/04/05 07:06:06;;;;;;;;;46.50;36.75;;;;;;;;5021797;28;11598;-75
2021/04/05 07:08:41;;;;;;;;;42.50;38.75;;;;;;;;5017402;28;11606;-78
2021/04/05 07:11:18;;;;;;;;;39.25;30.50;;;;;;;;5017039;28;11584;-80
2021/04/05 07:13:56;;;;;;;;;39.00;37.50;;;;;;;;5030123;28;12310;-75
2021/04/05 07:16:39;;;;;;;;;44.25;37.00;;;;;;;;5016168;28;11667;-73
2021/04/05 07:19:11;;;;;;;;;41.75;36.50;;;;;;;;5021095;28;12554;-73
2021/04/05 07:21:46;;;;;;;;;53.00;39.25;;;;;;;;5021224;28;11589;-75
2021/04/05 07:24:22;;;;;;;;;32.75;32.25;;;;;;;;5000538;28;11582;-71
2021/04/05 07:26:55;;;;;;;;;44.75;37.25;;;;;;;;5020686;28;11706;-73
2021/04/05 07:29:25;;;;;;;;;36.50;32.00;;;;;;;;5019281;28;11641;-66
2021/04/05 07:31:57;;;;;;;;;37.25;36.75;;;;;;;;5021381;28;11635;-68
2021/04/05 07:34:46;;;;;;;;;36.25;28.50;;;;;;;;5022831;28;11567;-68
2021/04/05 07:37:30;;;;;;;;;49.00;38.50;;;;;;;;5017267;28;11577;-67
2021/04/05 07:40:06;;;;;;;;;45.00;31.75;;;;;;;;5002152;28;11640;-66
2021/04/05 07:42:41;;;;;;;;;37.50;30.75;;;;;;;;5020410;28;11666;-67
2021/04/05 07:45:09;;;;;;;;;49.75;39.00;;;;;;;;5001464;28;11602;-72
2021/04/05 07:47:43;;;;;;;;;56.25;42.75;;;;;;;;5020806;28;11571;-74
2021/04/05 07:50:16;;;;;;;;;43.50;39.00;;;;;;;;5024232;28;11569;-74
2021/04/05 07:52:47;;;;;;;;;40.50;33.25;;;;;;;;5012742;28;11590;-73
2021/04/05 07:55:15;;;;;;;;;44.25;35.75;;;;;;;;4995464;28;11640;-73
2021/04/05 07:57:51;;;;;;;;;41.50;40.00;;;;;;;;5023554;28;11708;-73
2021/04/05 08:00:27;;;;;;;;;49.75;42.00;;;;;;;;5016244;28;11551;-73
2021/04/05 08:03:03;;;;;;;;;40.50;38.00;;;;;;;;5017334;28;11565;-74
2021/04/05 08:05:53;;;;;;;;;45.00;39.50;;;;;;;;5014862;28;12319;-73
2021/04/05 08:08:33;;;;;;;;;56.25;43.00;;;;;;;;5013270;28;11641;-72
2021/04/05 08:11:10;;;;;;;;;45.75;39.00;;;;;;;;5017931;28;11661;-70
2021/04/05 08:13:42;;;;;;;;;43.75;38.75;;;;;;;;5021313;28;11622;-72
2021/04/05 08:16:17;;;;;;;;;40.00;33.25;;;;;;;;5021002;28;11607;-73
2021/04/05 08:18:51;;;;;;;;;48.75;39.75;;;;;;;;5027467;28;11661;-73
2021/04/05 08:21:20;;;;;;;;;44.75;40.50;;;;;;;;5021460;28;11615;-72
2021/04/05 08:23:54;;;;;;;;;39.25;38.75;;;;;;;;5019261;28;11661;-73
2021/04/05 08:26:29;;;;;;;;;49.75;41.75;;;;;;;;5019675;28;11569;-73
2021/04/05 08:29:03;;;;;;;;;50.50;42.75;;;;;;;;5018732;28;11590;-72
2021/04/05 08:31:51;;;;;;;;;41.00;36.75;;;;;;;;5019995;28;11533;-73
2021/04/05 08:34:43;;;;;;;;;54.50;40.75;;;;;;;;5006631;28;11582;-71
2021/04/05 08:37:17;;;;;;;;;61.00;49.25;;;;;;;;4989201;28;11688;-73
2021/04/05 08:39:50;;;;;;;;;63.25;45.50;;;;;;;;5025931;28;11610;-72
2021/04/05 08:42:24;;;;;;;;;51.75;41.75;;;;;;;;5020933;28;11683;-75
2021/04/05 08:44:53;;;;;;;;;59.50;47.75;;;;;;;;4999449;28;11574;-74
2021/04/05 08:47:24;;;;;;;;;50.25;44.50;;;;;;;;4999723;28;11568;-74
2021/04/05 08:49:55;;;;;;;;;57.50;43.75;;;;;;;;5022656;28;11558;-74
2021/04/05 08:52:26;;;;;;;;;56.00;45.75;;;;;;;;5012920;28;11653;-74
2021/04/05 08:54:55;;;;;;;;;51.25;41.50;;;;;;;;5017560;28;11582;-73
2021/04/05 08:57:26;;;;;;;;;44.25;37.50;;;;;;;;5020252;28;11560;-73
2021/04/05 08:59:58;;;;;;;;;47.50;41.25;;;;;;;;5017548;28;11696;-73
2021/04/05 09:02:28;;;;;;;;;36.75;36.75;;;;;;;;5025891;28;11947;-73
2021/04/05 09:04:56;;;;;;;;;47.50;42.00;;;;;;;;5018630;28;11578;-70
2021/04/05 09:07:33;;;;;;;;;50.75;44.00;;;;;;;;5015210;28;11598;-72
2021/04/05 09:10:04;;;;;;;;;49.50;41.00;;;;;;;;5019430;28;11583;-72
2021/04/05 09:12:35;;;;;;;;;57.00;44.50;;;;;;;;4993306;28;11629;-72
2021/04/05 09:15:20;;;;;;;;;53.00;42.00;;;;;;;;5024410;28;11579;-72
2021/04/05 09:18:05;;;;;;;;;42.25;38.25;;;;;;;;5011313;28;11590;-73
2021/04/05 09:20:47;;;;;;;;;45.25;37.50;;;;;;;;5000372;28;11618;-73
2021/04/05 09:23:33;;;;;;;;;43.50;39.00;;;;;;;;5022522;28;11635;-73
2021/04/05 09:26:30;;;;;;;;;54.75;43.50;;;;;;;;5020565;28;11558;-73
2021/04/05 09:29:08;;;;;;;;;42.75;36.50;;;;;;;;5012992;28;11521;-73
2021/04/05 09:32:01;;;;;;;;;35.25;30.00;;;;;;;;5016734;28;11628;-73
2021/04/05 09:34:59;;;;;;;;;52.50;36.75;;;;;;;;5013075;28;12352;-73
2021/04/05 09:37:48;;;;;;;;;41.75;37.00;;;;;;;;4995224;28;11563;-73
2021/04/05 09:40:56;;;;;;;;;48.50;40.25;;;;;;;;4975714;28;11494;-77
2021/04/05 09:43:56;;;;;;;;;40.25;34.50;;;;;;;;4976539;28;11548;-74
2021/04/05 09:47:04;;;;;;;;;41.75;37.25;;;;;;;;5026147;28;11554;-73
2021/04/05 09:49:43;;;;;;;;;38.50;36.50;;;;;;;;4991596;28;11525;-73
2021/04/05 09:52:34;;;;;;;;;49.75;39.75;;;;;;;;5022166;28;12092;-73
2021/04/05 09:55:05;;;;;;;;;41.75;33.50;;;;;;;;5018079;28;11581;-73
2021/04/05 09:57:36;;;;;;;;;34.75;28.50;;;;;;;;5019073;28;12376;-70
2021/04/05 10:00:10;;;;;;;;;24.00;21.25;;;;;;;;5017507;28;11698;-72
2021/04/05 10:02:45;;;;;;;;;26.50;23.50;;;;;;;;5018379;28;11515;-73
2021/04/05 10:05:13;;;;;;;;;22.25;18.50;;;;;;;;5016668;28;11531;-72
2021/04/05 10:07:43;;;;;;;;;16.50;16.25;;;;;;;;5025226;28;11498;-71
2021/04/05 10:10:11;;;;;;;;;16.00;16.00;;;;;;;;5018160;28;11480;-71
2021/04/05 10:12:39;;;;;;;;;17.50;12.50;;;;;;;;5019207;28;11488;-71
2021/04/05 10:15:07;;;;;;;;;11.75;9.25;;;;;;;;5018176;28;11965;-72
2021/04/05 10:17:35;;;;;;;;;12.00;8.00;;;;;;;;5006807;28;11216;-71
2021/04/05 10:20:07;;;;;;;;;11.25;11.25;;;;;;;;5018233;28;11181;-70
2021/04/05 10:22:46;;;;;;;;;12.75;11.00;;;;;;;;5016528;28;11507;-72
2021/04/05 10:25:15;;;;;;;;;10.00;10.00;;;;;;;;4976058;28;11088;-72
2021/04/05 10:27:43;;;;;;;;;7.00;5.50;;;;;;;;4998712;28;11514;-71
2021/04/05 10:30:15;;;;;;;;;2.00;2.00;;;;;;;;5004863;28;11501;-71
2021/04/05 10:32:43;;;;;;;;;15.00;12.00;;;;;;;;5002988;28;11582;-72
2021/04/05 10:35:14;;;;;;;;;10.50;9.50;;;;;;;;4997591;28;11529;-71
2021/04/05 10:37:44;;;;;;;;;13.50;10.50;;;;;;;;4998916;28;11439;-71
2021/04/05 10:40:12;;;;;;;;;10.75;9.00;;;;;;;;4998008;28;11698;-72
2021/04/05 10:42:48;;;;;;;;;10.75;7.50;;;;;;;;4999552;28;11508;-72
2021/04/05 10:45:21;;;;;;;;;5.00;2.50;;;;;;;;4998417;28;11542;-72
2021/04/05 10:47:54;;;;;;;;;10.25;8.50;;;;;;;;4997979;28;11514;-71
2021/04/05 10:50:27;;;;;;;;;6.50;5.00;;;;;;;;5006957;28;11577;-71
2021/04/05 10:52:59;;;;;;;;;6.00;6.00;;;;;;;;4999492;28;11494;-72
2021/04/05 10:55:28;;;;;;;;;8.00;5.50;;;;;;;;4994120;28;11544;-73
2021/04/05 10:57:58;;;;;;;;;6.25;6.25;;;;;;;;4998293;28;11515;-72
2021/04/05 11:00:28;;;;;;;;;7.00;7.00;;;;;;;;4997883;28;11456;-72
2021/04/05 11:03:02;;;;;;;;;13.50;12.75;;;;;;;;4999293;28;11580;-72
2021/04/05 11:05:38;;;;;;;;;2.50;2.50;;;;;;;;4995078;28;12372;-72
2021/04/05 11:08:06;;;;;;;;;5.00;5.00;;;;;;;;4998553;28;11645;-72
2021/04/05 11:10:38;;;;;;;;;9.00;9.00;;;;;;;;4998107;28;11456;-72
2021/04/05 11:13:08;;;;;;;;;8.50;5.25;;;;;;;;5001376;28;11610;-71
2021/04/05 11:15:45;;;;;;;;;4.00;4.00;;;;;;;;4998884;28;11495;-72
2021/04/05 11:18:14;;;;;;;;;5.00;4.25;;;;;;;;4999057;28;12406;-70
2021/04/05 11:20:45;;;;;;;;;8.00;8.00;;;;;;;;4980149;28;11549;-71
2021/04/05 11:23:13;;;;;;;;;3.50;3.25;;;;;;;;4997479;28;11508;-72
2021/04/05 11:25:42;;;;;;;;;5.00;3.25;;;;;;;;4997640;28;11526;-72
2021/04/05 11:28:12;;;;;;;;;5.00;5.00;;;;;;;;4997000;28;11648;-73
2021/04/05 11:30:40;;;;;;;;;5.00;5.00;;;;;;;;4997791;28;11415;-73
2021/04/05 11:33:09;;;;;;;;;11.00;7.50;;;;;;;;4997635;28;12350;-72
2021/04/05 11:35:40;;;;;;;;;12.50;9.25;;;;;;;;5003069;28;11542;-72
2021/04/05 11:38:11;;;;;;;;;14.00;14.00;;;;;;;;4994709;28;11518;-72
2021/04/05 11:40:42;;;;;;;;;9.25;9.00;;;;;;;;4996436;28;11580;-71
2021/04/05 11:43:19;;;;;;;;;3.00;3.00;;;;;;;;4999620;28;11486;-72
2021/04/05 11:45:49;;;;;;;;;6.50;6.50;;;;;;;;4995563;28;11606;-71
2021/04/05 11:48:18;;;;;;;;;8.25;6.00;;;;;;;;4997793;28;11539;-72
2021/04/05 11:50:46;;;;;;;;;17.75;17.75;;;;;;;;4997329;28;12537;-71
2021/04/05 11:53:23;;;;;;;;;14.00;14.00;;;;;;;;4978623;28;12388;-71
2021/04/05 11:55:59;;;;;;;;;9.50;7.75;;;;;;;;5000069;28;11649;-73
2021/04/05 11:58:28;;;;;;;;;12.75;12.50;;;;;;;;4999826;28;12358;-71
2021/04/05 12:00:59;;;;;;;;;13.50;9.25;;;;;;;;4997710;28;11870;-71
2021/04/05 12:03:32;;;;;;;;;9.50;9.00;;;;;;;;4995694;28;12243;-71
2021/04/05 12:06:03;;;;;;;;;48.00;42.50;;;;;;;;4994329;28;11548;-71
2021/04/05 12:08:51;;;;;;;;;7.75;7.75;;;;;;;;4996623;28;11589;-73
2021/04/05 12:11:22;;;;;;;;;9.00;6.50;;;;;;;;4995136;28;11551;-71
2021/04/05 12:13:59;;;;;;;;;6.75;5.00;;;;;;;;5000249;28;11489;-72
2021/04/05 12:16:28;;;;;;;;;3.25;3.25;;;;;;;;4996481;28;11522;-71
2021/04/05 12:18:56;;;;;;;;;13.75;12.25;;;;;;;;5005974;28;11478;-71
2021/04/05 12:21:28;;;;;;;;;4.50;4.00;;;;;;;;4997965;28;11579;-71
2021/04/05 12:24:00;;;;;;;;;2.00;2.00;;;;;;;;4999010;28;11495;-74
2021/04/05 12:26:29;;;;;;;;;6.75;6.25;;;;;;;;4997226;28;11468;-72
2021/04/05 12:29:04;;;;;;;;;6.75;4.00;;;;;;;;4997973;28;11550;-72
2021/04/05 12:31:32;;;;;;;;;6.75;6.25;;;;;;;;4976103;28;11461;-72
2021/04/05 12:34:08;;;;;;;;;7.50;7.50;;;;;;;;4994877;28;11502;-71
2021/04/05 12:36:37;;;;;;;;;7.50;5.25;;;;;;;;4993855;28;11606;-71
2021/04/05 12:39:08;;;;;;;;;6.75;5.50;;;;;;;;4996506;28;12293;-70
2021/04/05 12:41:37;;;;;;;;;2.00;2.00;;;;;;;;5004867;28;12305;-71
2021/04/05 12:44:05;;;;;;;;;8.50;4.00;;;;;;;;4996341;28;12307;-72
2021/04/05 12:46:32;;;;;;;;;9.75;5.75;;;;;;;;5001219;28;11470;-71
2021/04/05 12:49:00;;;;;;;;;8.00;5.00;;;;;;;;5003460;28;11521;-71
2021/04/05 12:51:28;;;;;;;;;6.00;4.50;;;;;;;;4995766;28;11556;-71
2021/04/05 12:54:01;;;;;;;;;5.00;5.00;;;;;;;;4996968;28;11567;-72
2021/04/05 12:56:29;;;;;;;;;10.75;7.25;;;;;;;;4995481;28;11586;-70
2021/04/05 12:58:57;;;;;;;;;5.50;5.00;;;;;;;;4999527;28;11524;-70
2021/04/05 13:01:26;;;;;;;;;14.25;12.00;;;;;;;;5006035;28;11449;-71
2021/04/05 13:03:54;;;;;;;;;7.75;7.75;;;;;;;;5000868;28;11634;-71
2021/04/05 13:06:24;;;;;;;;;8.75;8.75;;;;;;;;4990799;28;11521;-72
2021/04/05 13:08:54;;;;;;;;;12.25;12.25;;;;;;;;4999168;28;11564;-72
2021/04/05 13:11:24;;;;;;;;;26.00;23.50;;;;;;;;4995928;28;11568;-70
2021/04/05 13:13:59;;;;;;;;;13.75;12.25;;;;;;;;5001148;28;12144;-71
2021/04/05 13:16:30;;;;;;;;;9.00;9.00;;;;;;;;5001130;28;11709;-71
2021/04/05 13:18:59;;;;;;;;;6.50;5.00;;;;;;;;4984337;28;11493;-71
2021/04/05 13:21:30;;;;;;;;;5.75;3.75;;;;;;;;4998287;28;11559;-71
2021/04/05 13:23:59;;;;;;;;;6.00;2.00;;;;;;;;5006074;28;11598;-71
2021/04/05 13:26:30;;;;;;;;;3.75;2.00;;;;;;;;5001216;28;11657;-72
2021/04/05 13:28:59;;;;;;;;;4.00;4.00;;;;;;;;5000283;28;11472;-71
2021/04/05 13:31:27;;;;;;;;;2.75;1.00;;;;;;;;5015687;28;12409;-71
2021/04/05 13:33:55;;;;;;;;;10.00;5.75;;;;;;;;5000468;28;11571;-71
2021/04/05 13:36:23;;;;;;;;;8.00;5.00;;;;;;;;5000631;28;11498;-73
2021/04/05 13:39:02;;;;;;;;;8.50;8.50;;;;;;;;4999478;28;11711;-72
2021/04/05 13:41:33;;;;;;;;;4.75;4.75;;;;;;;;4999814;28;11490;-73
2021/04/05 13:44:06;;;;;;;;;3.50;3.00;;;;;;;;4962845;28;11599;-73
2021/04/05 13:46:33;;;;;;;;;17.75;15.25;;;;;;;;4965682;28;11614;-72
2021/04/05 13:49:05;;;;;;;;;15.75;12.75;;;;;;;;4956830;28;11653;-73
2021/04/05 13:51:32;;;;;;;;;12.50;10.50;;;;;;;;4960568;28;11633;-72
2021/04/05 13:54:03;;;;;;;;;6.00;6.00;;;;;;;;4960734;28;11738;-72
2021/04/05 13:56:34;;;;;;;;;9.00;7.25;;;;;;;;4973821;28;11571;-73
2021/04/05 13:59:06;;;;;;;;;5.00;5.00;;;;;;;;4969297;28;11630;-72
2021/04/05 14:01:34;;;;;;;;;10.25;9.00;;;;;;;;4973199;28;11543;-72
2021/04/05 14:04:02;;;;;;;;;14.25;12.00;;;;;;;;4964995;28;11618;-72
2021/04/05 14:06:32;;;;;;;;;9.25;6.75;;;;;;;;4967527;28;11610;-72
2021/04/05 14:08:59;;;;;;;;;14.00;9.00;;;;;;;;4972856;28;11738;-73
2021/04/05 14:11:29;;;;;;;;;13.00;8.75;;;;;;;;4966120;28;12395;-72
2021/04/05 14:13:57;;;;;;;;;28.50;17.25;;;;;;;;4968890;28;12467;-70
2021/04/05 14:16:28;;;;;;;;;9.25;9.25;;;;;;;;4969356;28;11671;-71
2021/04/05 14:19:06;;;;;;;;;10.75;10.75;;;;;;;;4967765;28;11588;-77
2021/04/05 14:21:36;;;;;;;;;10.25;9.50;;;;;;;;4961184;28;11608;-73
2021/04/05 14:24:08;;;;;;;;;9.00;9.00;;;;;;;;4957679;28;11682;-73
2021/04/05 14:26:39;;;;;;;;;15.50;13.75;;;;;;;;4980784;28;11588;-73
2021/04/05 14:29:08;;;;;;;;;12.75;10.50;;;;;;;;4974615;28;11702;-72
2021/04/05 14:31:40;;;;;;;;;15.00;15.00;;;;;;;;4964998;28;12480;-73
2021/04/05 14:34:11;;;;;;;;;6.75;6.75;;;;;;;;4967567;28;12443;-72
2021/04/05 14:36:40;;;;;;;;;13.00;13.00;;;;;;;;4973895;28;11565;-71
2021/04/05 14:39:11;;;;;;;;;21.75;19.75;;;;;;;;4967277;28;11642;-72
2021/04/05 14:41:39;;;;;;;;;28.25;25.50;;;;;;;;4964522;28;11636;-70
2021/04/05 14:44:11;;;;;;;;;18.00;18.00;;;;;;;;4980740;28;12318;-72
2021/04/05 14:46:44;;;;;;;;;11.00;11.00;;;;;;;;5001908;28;11544;-70
2021/04/05 14:49:16;;;;;;;;;5.00;5.00;;;;;;;;5003691;28;11598;-72
2021/04/05 14:51:43;;;;;;;;;8.50;8.00;;;;;;;;5003174;28;11560;-71
2021/04/05 14:54:12;;;;;;;;;10.00;10.00;;;;;;;;5000440;28;11481;-74